Terminal Aerodrome Forecast
Issued by NWS Tallahassee, FL

Home | Current Version | Previous Version | Text Only | Print | Product List | Glossary On
Versions: 1 2 3 4 5 6 7 8 9 10 11 12 13 14
555
FTUS42 KTAE 252331
TAFTLH
TAF
KTLH 252331Z 2600/2624 29004KT P6SM VCSH SCT040 BKN110
     FM260300 VRB03KT P6SM BKN050
     FM260800 VRB03KT P6SM VCSH BKN040
     FM261600 36007KT P6SM VCTS SCT050CB BKN250=

USA.gov is the U.S. government's official web portal to all federal, state and local government web resources and services.